Time;durP1;ratioP1;P1;durP2;ratioP2;P2;SDS_P1;SDS_P2;PMS_P1;PMS_P2;Temp;Humidity;BMP_temperature;BMP_pressure;BME280_temperature;BME280_humidity;BME280_pressure;Samples;Min_cycle;Max_cycle;Signal;HPM_P1;HPM_P2
2023/09/22 00:01:40;;;;;;;3.08;1.80;;;;;;;;;;5061442;28;20052;-68
2023/09/22 00:04:06;;;;;;;3.08;1.80;;;;;;;;;;5062396;28;20040;-68
2023/09/22 00:06:33;;;;;;;2.75;1.77;;;;;;;;;;5062524;28;20495;-68
2023/09/22 00:08:59;;;;;;;2.35;1.50;;;;;;;;;;5060762;28;20033;-68
2023/09/22 00:11:25;;;;;;;2.38;1.38;;;;;;;;;;5061376;28;20052;-68
2023/09/22 00:13:51;;;;;;;2.97;1.80;;;;;;;;;;5061235;28;20082;-68
2023/09/22 00:16:17;;;;;;;2.75;1.42;;;;;;;;;;5061704;28;20064;-68
2023/09/22 00:18:43;;;;;;;2.90;1.77;;;;;;;;;;5061871;28;20044;-68
2023/09/22 00:21:09;;;;;;;2.83;1.70;;;;;;;;;;5061214;28;20404;-68
2023/09/22 00:23:35;;;;;;;2.75;1.83;;;;;;;;;;5061702;28;20049;-68
2023/09/22 00:26:02;;;;;;;1.85;1.10;;;;;;;;;;5061090;28;20143;-68
2023/09/22 00:28:28;;;;;;;2.33;1.60;;;;;;;;;;5060773;28;20166;-68
2023/09/22 00:30:54;;;;;;;3.95;1.98;;;;;;;;;;5061299;28;20352;-68
2023/09/22 00:33:20;;;;;;;3.80;1.77;;;;;;;;;;5064705;28;20040;-68
2023/09/22 00:35:46;;;;;;;3.03;1.98;;;;;;;;;;5064846;28;20037;-68
2023/09/22 00:38:12;;;;;;;3.75;2.40;;;;;;;;;;5066010;28;20067;-68
2023/09/22 00:40:39;;;;;;;3.45;1.92;;;;;;;;;;5065145;28;20163;-68
2023/09/22 00:43:05;;;;;;;4.07;2.30;;;;;;;;;;5063431;28;20105;-68
2023/09/22 00:45:32;;;;;;;3.33;1.70;;;;;;;;;;5064586;28;20074;-68
2023/09/22 00:47:58;;;;;;;2.63;1.80;;;;;;;;;;5065382;28;20084;-68
2023/09/22 00:50:24;;;;;;;3.13;2.10;;;;;;;;;;5065286;28;20129;-68
2023/09/22 00:52:50;;;;;;;2.58;1.70;;;;;;;;;;5065572;28;20056;-67
2023/09/22 00:55:16;;;;;;;2.83;2.10;;;;;;;;;;5065453;28;20535;-68
2023/09/22 00:57:43;;;;;;;3.33;2.20;;;;;;;;;;5064248;28;20105;-67
2023/09/22 01:00:10;;;;;;;2.88;1.90;;;;;;;;;;5065011;28;20041;-68
2023/09/22 01:02:37;;;;;;;3.40;2.17;;;;;;;;;;5071694;28;20143;-67
2023/09/22 01:05:04;;;;;;;2.70;1.88;;;;;;;;;;5065524;28;20429;-67
2023/09/22 01:07:30;;;;;;;3.10;1.77;;;;;;;;;;5063805;28;20044;-68
2023/09/22 01:10:06;;;;;;;2.75;1.80;;;;;;;;;;5063183;28;20040;-68
2023/09/22 01:12:32;;;;;;;4.63;2.03;;;;;;;;;;5064370;28;20048;-68
2023/09/22 01:15:00;;;;;;;3.47;1.70;;;;;;;;;;5064547;28;20043;-67
2023/09/22 01:17:26;;;;;;;3.05;2.22;;;;;;;;;;5063591;28;20510;-67
2023/09/22 01:19:52;;;;;;;3.30;1.75;;;;;;;;;;5063614;28;20090;-67
2023/09/22 01:22:19;;;;;;;3.80;2.10;;;;;;;;;;5064570;28;20129;-68
2023/09/22 01:24:45;;;;;;;3.42;2.17;;;;;;;;;;5064839;28;21417;-68
2023/09/22 01:27:11;;;;;;;2.80;1.83;;;;;;;;;;5064407;28;20448;-68
2023/09/22 01:29:37;;;;;;;3.72;2.63;;;;;;;;;;5061819;28;20416;-68
2023/09/22 01:32:04;;;;;;;2.95;2.08;;;;;;;;;;5063981;28;20106;-68
2023/09/22 01:34:30;;;;;;;3.15;2.10;;;;;;;;;;5064019;28;20033;-67
2023/09/22 01:36:57;;;;;;;4.10;2.10;;;;;;;;;;5064196;28;20044;-68
2023/09/22 01:39:23;;;;;;;3.00;2.42;;;19.00;99.90;;;;;;5064752;28;20090;-68
2023/09/22 01:41:49;;;;;;;4.13;2.90;;;16.90;99.90;;;;;;5064430;28;20040;-68
2023/09/22 01:44:14;;;;;;;5.20;2.95;;;16.80;99.90;;;;;;5063940;28;20514;-68
2023/09/22 01:46:40;;;;;;;4.97;2.80;;;16.80;99.90;;;;;;5070393;28;20036;-67
2023/09/22 01:49:06;;;;;;;4.55;2.75;;;16.90;99.90;;;;;;5064055;28;20044;-68
2023/09/22 01:51:31;;;;;;;4.35;2.85;;;16.80;99.90;;;;;;5063971;28;20044;-67
2023/09/22 01:53:57;;;;;;;6.95;2.97;;;16.80;99.90;;;;;;5064315;28;20047;-68
2023/09/22 01:56:23;;;;;;;5.22;3.38;;;16.80;99.90;;;;;;5063898;28;20087;-68
2023/09/22 01:58:49;;;;;;;6.03;3.47;;;16.80;99.90;;;;;;5063461;28;20055;-68
2023/09/22 02:01:15;;;;;;;5.28;3.35;;;16.80;99.90;;;;;;5063275;28;20072;-67
2023/09/22 02:03:40;;;;;;;5.05;3.17;;;16.80;99.90;;;;;;5063697;28;20036;-68
2023/09/22 02:06:06;;;;;;;4.75;3.47;;;16.80;99.90;;;;;;5063043;28;20135;-68
2023/09/22 02:08:33;;;;;;;4.57;3.53;;;;;;;;;;5063310;28;20048;-68
2023/09/22 02:10:59;;;;;;;5.55;3.60;;;;;;;;;;5063316;28;20121;-68
2023/09/22 02:13:25;;;;;;;5.53;3.47;;;;;;;;;;5063376;28;20048;-68
2023/09/22 02:15:52;;;;;;;5.93;3.65;;;;;;;;;;5062587;28;20067;-67
2023/09/22 02:18:19;;;;;;;7.90;3.90;;;;;;;;;;5063779;28;20036;-68
2023/09/22 02:20:45;;;;;;;5.40;3.95;;;;;;;;;;5063944;28;20064;-68
2023/09/22 02:23:11;;;;;;;5.32;3.20;;;;;;;;;;5063379;28;20742;-68
2023/09/22 02:25:37;;;;;;;4.90;3.65;;;;;;;;;;5062361;28;20052;-68
2023/09/22 02:28:03;;;;;;;4.35;3.20;;;;;;;;;;5062490;28;20499;-68
2023/09/22 02:30:29;;;;;;;6.60;4.60;;;;;;;;;;5060999;28;20049;-69
2023/09/22 02:32:55;;;;;;;4.70;2.95;;;;;;;;;;5063190;28;20055;-69
2023/09/22 02:35:22;;;;;;;4.28;3.15;;;;;;;;;;5061284;28;20063;-68
2023/09/22 02:37:48;;;;;;;3.97;2.88;;;;;;;;;;5063254;28;20137;-69
2023/09/22 02:40:14;;;;;;;3.88;2.70;;;;;;;;;;5062620;28;20045;-66
2023/09/22 02:42:41;;;;;;;3.70;3.08;;;;;;;;;;5062406;28;20089;-67
2023/09/22 02:45:09;;;;;;;4.00;3.00;;;;;;;;;;5063366;28;20059;-69
2023/09/22 02:47:36;;;;;;;4.45;3.10;;;;;;;;;;5061855;28;20514;-67
2023/09/22 02:50:03;;;;;;;5.13;2.92;;;;;;;;;;5063339;28;20059;-68
2023/09/22 02:52:30;;;;;;;5.15;3.10;;;;;;;;;;5062836;28;20048;-68
2023/09/22 02:54:59;;;;;;;4.43;2.88;;;;;;;;;;5062918;28;20047;-68
2023/09/22 02:57:25;;;;;;;2.83;2.10;;;;;;;;;;5061814;28;20075;-69
2023/09/22 02:59:55;;;;;;;3.45;2.70;;;;;;;;;;5063249;28;20036;-68
2023/09/22 03:02:22;;;;;;;4.05;3.03;;;;;;;;;;5061967;28;20032;-68
2023/09/22 03:04:49;;;;;;;4.05;3.22;;;;;;;;;;5070316;28;20048;-68
2023/09/22 03:07:15;;;;;;;3.20;2.42;;;;;;;;;;5063209;28;20060;-68
2023/09/22 03:09:41;;;;;;;3.80;3.20;;;;;;;;;;5062986;28;20040;-68
2023/09/22 03:12:07;;;;;;;3.90;2.67;;;;;;;;;;5063333;28;20119;-68
2023/09/22 03:14:34;;;;;;;5.25;3.30;;;;;;;;;;5069875;28;20454;-68
2023/09/22 03:17:01;;;;;;;4.00;2.55;;;;;;;;;;5061558;28;20072;-68
2023/09/22 03:19:28;;;;;;;3.92;2.92;;;;;;;;;;5062777;28;20548;-68
2023/09/22 03:21:55;;;;;;;3.63;2.17;;;;;;;;;;5062539;28;20508;-68
2023/09/22 03:24:21;;;;;;;4.63;3.03;;;;;;;;;;5062438;28;20173;-68
2023/09/22 03:26:47;;;;;;;3.17;2.63;;;;;;;;;;5062669;28;20040;-68
2023/09/22 03:29:13;;;;;;;3.30;2.15;;;;;;;;;;5061507;28;20508;-68
2023/09/22 03:31:39;;;;;;;4.40;2.35;;;;;;;;;;5062061;28;20044;-68
2023/09/22 03:34:06;;;;;;;3.38;2.40;;;;;;;;;;5063017;28;20055;-68
2023/09/22 03:36:32;;;;;;;3.25;2.10;;;;;;;;;;5062774;28;20066;-68
2023/09/22 03:38:58;;;;;;;3.65;2.35;;;;;;;;;;5061967;28;20040;-68
2023/09/22 03:41:28;;;;;;;3.47;2.22;;;;;;;;;;5062703;28;20172;-68
2023/09/22 03:43:55;;;;;;;2.83;1.70;;;16.80;99.90;;;;;;5059940;28;20116;-68
2023/09/22 03:46:22;;;;;;;3.05;1.90;;;16.50;99.90;;;;;;5062590;28;20936;-68
2023/09/22 03:48:48;;;;;;;3.33;2.10;;;;;;;;;;5061793;28;20048;-67
2023/09/22 03:51:14;;;;;;;5.40;2.50;;;;;;;;;;5063060;28;20048;-68
2023/09/22 03:53:40;;;;;;;2.85;1.85;;;;;;;;;;5063385;28;20033;-68
2023/09/22 03:56:07;;;;;;;3.10;2.25;;;;;;;;;;5062562;28;20487;-68
2023/09/22 03:58:33;;;;;;;2.75;1.92;;;16.50;99.90;;;;;;5061589;28;20226;-68
2023/09/22 04:01:06;;;;;;;3.30;1.65;;;16.50;99.90;;;;;;5061193;28;20444;-68
2023/09/22 04:03:31;;;;;;;2.00;1.63;;;16.40;99.90;;;;;;5060995;28;20083;-67
2023/09/22 04:05:58;;;;;;;2.97;1.73;;;16.40;99.90;;;;;;5064222;28;20045;-68
2023/09/22 04:08:24;;;;;;;2.38;1.80;;;16.40;99.90;;;;;;5031014;28;20105;-68
2023/09/22 04:10:51;;;;;;;4.72;1.70;;;16.40;99.90;;;;;;5065247;28;20048;-68
2023/09/22 04:13:18;;;;;;;2.92;2.03;;;16.40;99.90;;;;;;5038530;28;20067;-67
2023/09/22 04:15:45;;;;;;;2.67;1.90;;;16.40;99.90;;;;;;5063442;28;20798;-67
2023/09/22 04:18:13;;;;;;;5.53;1.92;;;16.40;99.90;;;;;;5066176;28;20139;-68
2023/09/22 04:20:43;;;;;;;5.00;1.95;;;16.40;99.90;;;;;;5066783;28;20119;-67
2023/09/22 04:23:10;;;;;;;2.33;1.42;;;16.40;99.90;;;;;;5067677;28;20036;-67
2023/09/22 04:25:37;;;;;;;3.63;1.77;;;16.30;99.90;;;;;;5068354;28;20121;-67
2023/09/22 04:28:11;;;;;;;3.67;2.35;;;16.40;99.90;;;;;;5067425;28;20415;-68
2023/09/22 04:30:38;;;;;;;4.07;2.50;;;16.40;99.90;;;;;;5065041;28;20064;-68
2023/09/22 04:33:05;;;;;;;2.53;1.92;;;16.40;99.90;;;;;;5064504;28;20059;-68
2023/09/22 04:35:32;;;;;;;3.65;2.60;;;16.30;99.90;;;;;;5064010;28;20047;-67
2023/09/22 04:38:04;;;;;;;3.70;2.10;;;16.30;99.90;;;;;;5064018;28;20060;-67
2023/09/22 04:40:36;;;;;;;3.00;2.17;;;16.30;99.90;;;;;;5062491;28;20044;-67
2023/09/22 04:43:05;;;;;;;3.42;2.13;;;16.30;99.90;;;;;;5061926;28;20127;-67
2023/09/22 04:45:30;;;;;;;4.07;2.60;;;16.30;99.90;;;;;;5061419;28;20049;-67
2023/09/22 04:47:57;;;;;;;3.88;2.47;;;16.30;99.90;;;;;;5062527;28;20049;-67
2023/09/22 04:50:23;;;;;;;6.35;3.03;;;16.30;99.90;;;;;;5064330;28;20051;-67
2023/09/22 04:52:49;;;;;;;4.15;2.88;;;16.30;99.90;;;;;;5065356;28;21549;-67
2023/09/22 04:55:16;;;;;;;4.55;2.58;;;16.30;99.90;;;;;;5062935;28;20090;-68
2023/09/22 04:57:43;;;;;;;2.88;1.98;;;16.30;99.90;;;;;;5062874;28;20048;-68
2023/09/22 05:00:15;;;;;;;4.63;2.85;;;16.30;99.90;;;;;;5064694;28;20041;-67
2023/09/22 05:02:43;;;;;;;5.07;2.65;;;16.30;99.90;;;;;;5064096;28;20048;-67
2023/09/22 05:05:10;;;;;;;4.50;2.72;;;16.30;99.90;;;;;;5065516;28;20144;-67
2023/09/22 05:07:36;;;;;;;3.60;2.45;;;16.30;99.90;;;;;;5063296;28;20044;-67
2023/09/22 05:10:02;;;;;;;3.95;3.15;;;16.30;99.90;;;;;;5064349;28;20041;-67
2023/09/22 05:12:30;;;;;;;4.88;3.50;;;16.30;99.90;;;;;;5064206;28;20051;-67
2023/09/22 05:14:56;;;;;;;3.90;2.70;;;16.30;99.90;;;;;;5064333;28;20381;-69
2023/09/22 05:17:22;;;;;;;4.63;2.97;;;16.30;99.90;;;;;;5063216;28;20067;-69
2023/09/22 05:19:48;;;;;;;6.50;3.38;;;16.30;99.90;;;;;;5061544;28;20648;-69
2023/09/22 05:22:14;;;;;;;4.47;2.97;;;;;;;;;;5062147;28;20040;-69
2023/09/22 05:24:40;;;;;;;5.80;3.00;;;;;;;;;;5064455;28;20040;-69
2023/09/22 05:27:07;;;;;;;5.22;3.55;;;;;;;;;;5064440;28;20117;-68
2023/09/22 05:29:33;;;;;;;5.80;3.58;;;;;;;;;;5063560;28;20087;-69
2023/09/22 05:31:59;;;;;;;6.38;4.55;;;;;;;;;;5063719;28;20054;-69
2023/09/22 05:34:25;;;;;;;7.88;4.55;;;;;;;;;;5064617;28;20090;-69
2023/09/22 05:36:51;;;;;;;7.30;4.22;;;;;;;;;;5064614;28;20036;-69
2023/09/22 05:39:18;;;;;;;7.63;4.57;;;;;;;;;;5064202;28;20105;-69
2023/09/22 05:41:47;;;;;;;6.07;4.53;;;;;;;;;;5062261;28;20056;-69
2023/09/22 05:44:16;;;;;;;7.97;5.15;;;;;;;;;;5063837;28;20148;-68
2023/09/22 05:46:42;;;;;;;7.30;5.43;;;;;;;;;;5063082;28;20124;-67
2023/09/22 05:49:14;;;;;;;8.10;4.68;;;;;;;;;;5063117;28;20055;-68
2023/09/22 05:51:40;;;;;;;9.82;5.75;;;;;;;;;;5061465;28;20044;-68
2023/09/22 05:54:07;;;;;;;8.63;6.47;;;;;;;;;;5063747;28;20434;-67
2023/09/22 05:56:40;;;;;;;8.35;5.32;;;;;;;;;;5062421;28;20527;-68
2023/09/22 05:59:06;;;;;;;11.43;6.30;;;;;;;;;;5061343;28;20041;-68
2023/09/22 06:01:37;;;;;;;11.10;6.18;;;;;;;;;;5063313;28;20063;-68
2023/09/22 06:04:08;;;;;;;9.23;5.72;;;;;;;;;;5064864;28;20549;-67
2023/09/22 06:06:34;;;;;;;10.52;6.50;;;;;;;;;;5062914;28;20349;-66
2023/09/22 06:09:00;;;;;;;9.65;6.38;;;;;;;;;;5071008;28;20041;-66
2023/09/22 06:11:26;;;;;;;9.93;5.63;;;;;;;;;;5063359;28;20622;-66
2023/09/22 06:13:52;;;;;;;11.02;6.38;;;;;;;;;;5061887;28;20067;-67
2023/09/22 06:16:19;;;;;;;13.15;6.70;;;;;;;;;;5063121;28;20536;-67
2023/09/22 06:18:45;;;;;;;10.07;6.32;;;;;;;;;;5063543;28;20041;-68
2023/09/22 06:21:12;;;;;;;8.95;6.57;;;;;;;;;;5062335;28;20054;-68
2023/09/22 06:23:41;;;;;;;8.73;5.95;;;;;;;;;;5063311;28;20052;-67
2023/09/22 06:26:10;;;;;;;9.23;6.55;;;;;;;;;;5063075;28;20554;-66
2023/09/22 06:28:41;;;;;;;9.98;7.22;;;;;;;;;;5060357;28;20044;-67
2023/09/22 06:31:07;;;;;;;13.30;7.28;;;;;;;;;;5060885;28;20048;-67
2023/09/22 06:33:33;;;;;;;11.20;7.60;;;;;;;;;;5062458;28;20043;-68
2023/09/22 06:36:01;;;;;;;10.88;7.00;;;;;;;;;;5062503;28;20076;-68
2023/09/22 06:38:27;;;;;;;9.88;7.15;;;;;;;;;;5062215;28;20067;-67
2023/09/22 06:40:55;;;;;;;15.52;8.23;;;;;;;;;;5057485;28;20037;-68
2023/09/22 06:43:24;;;;;;;11.00;7.28;;;;;;;;;;5060253;28;20048;-67
2023/09/22 06:45:56;;;;;;;10.00;7.78;;;;;;;;;;5062106;28;20041;-67
2023/09/22 06:48:25;;;;;;;10.98;8.45;;;;;;;;;;5060636;28;20044;-68
2023/09/22 06:50:52;;;;;;;13.30;7.45;;;;;;;;;;5062322;28;20387;-68
2023/09/22 06:53:21;;;;;;;13.00;7.95;;;;;;;;;;5035549;28;20042;-67
2023/09/22 06:55:53;;;;;;;12.57;8.32;;;;;;;;;;5053134;28;20216;-67
2023/09/22 06:58:19;;;;;;;10.25;7.30;;;;;;;;;;5053509;28;20090;-67
2023/09/22 07:00:46;;;;;;;11.30;8.10;;;;;;;;;;5052648;28;20075;-67
2023/09/22 07:03:12;;;;;;;11.38;7.95;;;;;;;;;;5059237;28;20036;-68
2023/09/22 07:05:38;;;;;;;14.85;9.43;;;;;;;;;;5059802;28;20761;-68
2023/09/22 07:08:04;;;;;;;13.25;8.98;;;;;;;;;;5058361;28;20043;-67
2023/09/22 07:10:33;;;;;;;10.90;8.85;;;;;;;;;;5059208;28;20535;-67
2023/09/22 07:13:00;;;;;;;12.05;7.55;;;;;;;;;;5059111;28;20518;-68
2023/09/22 07:15:26;;;;;;;13.15;8.50;;;;;;;;;;5060791;28;20511;-68
2023/09/22 07:17:52;;;;;;;10.82;7.55;;;;;;;;;;5059236;28;20061;-68
2023/09/22 07:20:19;;;;;;;10.20;7.78;;;;;;;;;;5059287;28;20056;-68
2023/09/22 07:22:47;;;;;;;11.90;8.77;;;;;;;;;;5058345;28;20162;-68
2023/09/22 07:25:14;;;;;;;12.15;8.77;;;;;;;;;;5056198;28;20044;-68
2023/09/22 07:27:40;;;;;;;11.07;6.78;;;;;;;;;;5057976;28;20597;-68
2023/09/22 07:30:09;;;;;;;11.20;7.72;;;;;;;;;;5056183;28;20048;-68
2023/09/22 07:32:37;;;;;;;9.60;7.15;;;;;;;;;;5059821;28;20091;-67
2023/09/22 07:35:04;;;;;;;10.32;6.80;;;;;;;;;;5057796;28;20048;-67
2023/09/22 07:37:30;;;;;;;11.52;7.18;;;;;;;;;;5051856;28;20040;-68
2023/09/22 07:39:57;;;;;;;13.43;8.05;;;;;;;;;;5055653;28;20122;-67
2023/09/22 07:42:23;;;;;;;12.50;8.63;;;;;;;;;;5052035;28;20101;-66
2023/09/22 07:44:49;;;;;;;9.02;7.03;;;;;;;;;;5060270;28;20448;-67
2023/09/22 07:47:15;;;;;;;9.93;6.57;;;;;;;;;;5058615;28;20048;-67
2023/09/22 07:49:42;;;;;;;9.52;6.00;;;;;;;;;;5059973;28;20071;-67
2023/09/22 07:52:11;;;;;;;10.27;7.10;;;;;;;;;;5057279;28;20040;-67
2023/09/22 07:54:37;;;;;;;11.18;7.03;;;;;;;;;;5055776;28;20066;-67
2023/09/22 07:57:04;;;;;;;9.52;6.75;;;;;;;;;;5058328;28;20116;-67
2023/09/22 07:59:30;;;;;;;7.82;6.47;;;;;;;;;;5059689;28;20150;-67
2023/09/22 08:01:59;;;;;;;9.40;6.22;;;;;;;;;;5059396;28;20044;-68
2023/09/22 08:04:26;;;;;;;8.70;5.78;;;;;;;;;;5057109;28;20361;-68
2023/09/22 08:06:52;;;;;;;8.27;5.55;;;;;;;;;;5059311;28;20055;-68
2023/09/22 08:09:19;;;;;;;10.02;5.32;;;;;;;;;;5059060;28;20435;-68
2023/09/22 08:11:45;;;;;;;5.78;4.95;;;;;;;;;;5059486;28;20036;-68
2023/09/22 08:14:12;;;;;;;7.35;4.10;;;;;;;;;;5059155;28;20056;-68
2023/09/22 08:16:38;;;;;;;8.77;5.38;;;;;;;;;;5054484;28;20455;-68
2023/09/22 08:19:10;;;;;;;6.38;4.75;;;;;;;;;;5058211;28;20488;-68
2023/09/22 08:21:37;;;;;;;6.53;5.05;;;;;;;;;;5058215;28;20426;-68
2023/09/22 08:24:04;;;;;;;7.38;4.53;;;;;;;;;;5060526;28;20052;-68
2023/09/22 08:26:31;;;;;;;11.65;4.40;;;;;;;;;;5055416;28;20572;-66
2023/09/22 08:28:57;;;;;;;9.80;5.70;;;;;;;;;;5058519;28;20048;-68
2023/09/22 08:31:29;;;;;;;6.47;4.63;;;;;;;;;;5060206;28;20051;-68
2023/09/22 08:33:55;;;;;;;5.63;4.13;;;;;;;;;;5059318;28;20044;-68
2023/09/22 08:36:21;;;;;;;6.50;4.05;;;;;;;;;;5059986;28;20677;-68
2023/09/22 08:38:48;;;;;;;5.38;4.32;;;;;;;;;;5059100;28;20402;-68
2023/09/22 08:41:14;;;;;;;6.57;4.38;;;;;;;;;;5059537;28;20139;-68
2023/09/22 08:43:41;;;;;;;5.85;3.72;;;;;;;;;;5058157;28;20044;-67
2023/09/22 08:46:07;;;;;;;7.25;3.83;;;;;;;;;;5059373;28;20182;-67
2023/09/22 08:48:34;;;;;;;7.00;4.03;;;;;;;;;;5059316;28;20052;-68
2023/09/22 08:51:00;;;;;;;6.15;3.13;;;;;;;;;;5058822;28;20153;-68
2023/09/22 08:53:29;;;;;;;5.68;3.70;;;;;;;;;;5063231;28;20120;-67
2023/09/22 08:55:56;;;;;;;6.18;3.35;;;;;;;;;;5063006;28;20080;-68
2023/09/22 08:58:22;;;;;;;4.78;3.55;;;;;;;;;;5062567;28;20102;-68
2023/09/22 09:00:51;;;;;;;5.18;3.45;;;;;;;;;;5063581;28;20044;-68
2023/09/22 09:03:21;;;;;;;8.52;3.42;;;;;;;;;;5061991;28;20483;-68
2023/09/22 09:05:52;;;;;;;4.55;2.95;;;;;;;;;;5064109;28;20067;-68
2023/09/22 09:08:21;;;;;;;4.40;3.00;;;;;;;;;;5062706;28;20052;-68
2023/09/22 09:10:48;;;;;;;3.35;2.65;;;;;;;;;;5064171;28;20102;-68
2023/09/22 09:13:15;;;;;;;4.90;2.75;;;;;;;;;;5062265;28;20131;-68
2023/09/22 09:15:47;;;;;;;5.10;2.97;;;;;;;;;;5063064;28;20045;-68
2023/09/22 09:18:19;;;;;;;4.38;2.38;;;;;;;;;;5061295;28;20090;-68
2023/09/22 09:20:47;;;;;;;4.22;2.97;;;;;;;;;;5063322;28;20052;-68
2023/09/22 09:23:16;;;;;;;3.60;2.67;;;;;;;;;;5061759;28;20040;-68
2023/09/22 09:25:45;;;;;;;4.60;2.75;;;;;;;;;;5063580;28;20097;-68
2023/09/22 09:28:12;;;;;;;5.15;2.67;;;;;;;;;;5061025;28;20051;-68
2023/09/22 09:30:39;;;;;;;4.28;2.80;;;;;;;;;;5063225;28;20123;-68
2023/09/22 09:33:12;;;;;;;3.58;2.42;;;;;;;;;;5061909;28;20047;-68
2023/09/22 09:35:39;;;;;;;5.30;2.67;;;;;;;;;;5064604;28;20049;-68
2023/09/22 09:38:06;;;;;;;3.10;2.33;;;;;;;;;;5061595;28;20484;-68
2023/09/22 09:40:37;;;;;;;3.50;2.38;;;;;;;;;;5063267;28;20123;-67
2023/09/22 09:43:05;;;;;;;4.72;1.95;;;;;;;;;;5061684;28;20452;-67
2023/09/22 09:45:34;;;;;;;3.53;2.33;;;;;;;;;;5062349;28;20051;-68
2023/09/22 09:48:03;;;;;;;2.95;1.60;;;16.30;99.90;;;;;;5062347;28;20041;-69
2023/09/22 09:50:32;;;;;;;3.95;2.00;;;18.50;99.90;;;;;;5057348;28;20048;-69
2023/09/22 09:53:05;;;;;;;2.65;2.30;;;18.60;99.90;;;;;;5055247;28;20048;-69
2023/09/22 09:55:32;;;;;;;3.53;1.92;;;;;;;;;;5061188;28;20094;-69
2023/09/22 09:58:00;;;;;;;2.60;1.85;;;;;;;;;;5061925;28;20123;-69
2023/09/22 10:00:26;;;;;;;5.97;1.95;;;;;;;;;;5061727;28;20075;-69
2023/09/22 10:02:57;;;;;;;4.53;2.00;;;;;;;;;;5060778;28;20352;-69
2023/09/22 10:05:23;;;;;;;2.35;1.50;;;;;;;;;;5062123;28;20119;-69
2023/09/22 10:07:50;;;;;;;2.72;1.25;;;;;;;;;;5060893;28;20044;-69
2023/09/22 10:10:17;;;;;;;4.28;1.67;;;;;;;;;;5062077;28;20040;-69
2023/09/22 10:12:44;;;;;;;2.65;1.95;;;;;;;;;;5061745;28;20071;-70
2023/09/22 10:15:11;;;;;;;1.60;1.40;;;;;;;;;;5062421;28;20174;-68
2023/09/22 10:17:38;;;;;;;2.70;1.73;;;;;;;;;;5060077;28;20049;-68
2023/09/22 10:20:06;;;;;;;1.90;1.67;;;;;;;;;;5061402;28;20044;-68
2023/09/22 10:22:33;;;;;;;1.50;1.30;;;;;;;;;;5062121;28;20155;-68
2023/09/22 10:25:15;;;;;;;2.10;1.20;;;;;;;;;;5061339;28;20218;-68
2023/09/22 10:28:01;;;;;;;2.38;1.40;;;18.70;99.90;;;;;;5062239;28;20047;-68
2023/09/22 10:30:44;;;;;;;5.93;1.80;;;19.70;99.90;;;;;;5062903;28;20056;-68
2023/09/22 10:33:16;;;;;;;2.75;1.70;;;19.70;99.90;;;;;;5063324;28;20566;-67
2023/09/22 10:35:43;;;;;;;3.07;1.60;;;19.70;99.90;;;;;;5064340;28;20040;-67
2023/09/22 10:38:12;;;;;;;2.33;1.45;;;19.70;99.90;;;;;;5062433;28;20692;-68
2023/09/22 10:40:40;;;;;;;2.47;1.58;;;19.70;99.90;;;;;;5063007;28;20032;-68
2023/09/22 10:43:06;;;;;;;2.17;1.40;;;19.60;99.90;;;;;;5058665;28;20123;-68
2023/09/22 10:45:32;;;;;;;1.42;1.30;;;19.60;99.90;;;;;;5061953;28;21174;-67
2023/09/22 10:48:00;;;;;;;1.73;1.05;;;19.50;99.90;;;;;;5061905;28;20060;-68
2023/09/22 10:50:31;;;;;;;2.42;1.48;;;19.50;99.80;;;;;;5063718;28;20058;-69
2023/09/22 10:52:58;;;;;;;2.00;1.38;;;19.40;99.60;;;;;;5061594;28;20042;-69
2023/09/22 10:55:34;;;;;;;1.85;1.33;;;19.40;99.50;;;;;;5061528;28;20037;-68
2023/09/22 10:58:02;;;;;;;1.20;1.10;;;19.40;99.40;;;;;;5061450;28;20051;-68
2023/09/22 11:00:27;;;;;;;2.55;2.10;;;19.40;99.40;;;;;;5059566;28;20067;-68
2023/09/22 11:02:54;;;;;;;3.05;1.30;;;19.30;99.40;;;;;;5061748;28;20032;-68
2023/09/22 11:05:20;;;;;;;1.77;1.40;;;19.30;99.40;;;;;;5061741;28;20048;-68
2023/09/22 11:07:47;;;;;;;2.15;1.30;;;19.30;99.40;;;;;;5062013;28;20048;-68
2023/09/22 11:10:22;;;;;;;3.17;1.52;;;19.30;99.40;;;;;;5060028;28;20137;-68
2023/09/22 11:12:50;;;;;;;1.75;1.30;;;19.30;99.30;;;;;;5060984;28;20538;-68
2023/09/22 11:15:16;;;;;;;1.88;1.40;;;19.30;99.30;;;;;;5060911;28;20499;-68
2023/09/22 11:17:46;;;;;;;1.23;1.08;;;19.40;99.30;;;;;;5058909;28;20060;-68
2023/09/22 11:20:22;;;;;;;2.20;1.50;;;19.50;99.30;;;;;;5061533;28;20048;-69
2023/09/22 11:22:49;;;;;;;2.40;1.13;;;19.50;99.30;;;;;;5061286;28;20059;-69
2023/09/22 11:25:15;;;;;;;5.15;1.30;;;19.60;99.30;;;;;;5060742;28;20726;-69
2023/09/22 11:27:47;;;;;;;2.05;1.35;;;19.60;99.20;;;;;;5060666;28;20127;-68
2023/09/22 11:30:28;;;;;;;1.88;1.20;;;19.60;99.10;;;;;;5060513;28;20218;-68
2023/09/22 11:32:57;;;;;;;2.15;1.38;;;19.70;99.10;;;;;;5060622;28;20216;-69
2023/09/22 11:35:28;;;;;;;1.85;1.17;;;19.70;99.00;;;;;;5060102;28;20127;-68
2023/09/22 11:37:55;;;;;;;3.80;1.20;;;19.70;99.00;;;;;;5060881;28;20321;-68
2023/09/22 11:40:22;;;;;;;3.03;1.20;;;19.70;99.00;;;;;;5061669;28;20045;-69
2023/09/22 11:42:48;;;;;;;2.92;1.80;;;19.70;98.90;;;;;;5058449;28;20518;-69
2023/09/22 11:45:24;;;;;;;2.65;0.90;;;19.80;98.90;;;;;;5061003;28;20040;-68
2023/09/22 11:48:06;;;;;;;2.20;0.95;;;19.80;98.90;;;;;;5059074;28;20898;-68
2023/09/22 11:50:32;;;;;;;3.65;1.40;;;19.90;98.90;;;;;;5060687;28;20488;-68
2023/09/22 11:53:09;;;;;;;1.90;1.60;;;20.00;98.90;;;;;;5060632;28;20058;-68
2023/09/22 11:55:36;;;;;;;2.15;1.17;;;20.10;98.80;;;;;;5058607;28;20037;-68
2023/09/22 11:58:02;;;;;;;2.35;1.08;;;20.10;98.80;;;;;;5060571;28;20530;-69
2023/09/22 12:00:28;;;;;;;1.63;1.10;;;20.20;98.80;;;;;;5059591;28;20093;-68
2023/09/22 12:02:54;;;;;;;1.40;1.20;;;20.20;98.70;;;;;;5058934;28;20032;-68
2023/09/22 12:05:20;;;;;;;1.70;1.20;;;20.30;98.70;;;;;;5059479;28;20599;-69
2023/09/22 12:07:46;;;;;;;2.70;1.30;;;;;;;;;;5059925;28;20029;-68
2023/09/22 12:10:12;;;;;;;2.03;1.45;;;;;;;;;;5059528;28;20578;-68
2023/09/22 12:12:38;;;;;;;1.58;1.15;;;;;;;;;;5059367;28;20067;-69
2023/09/22 12:15:05;;;;;;;1.88;0.98;;;;;;;;;;5058268;28;20511;-68
2023/09/22 12:17:31;;;;;;;2.13;0.95;;;;;;;;;;5059792;28;20119;-69
2023/09/22 12:19:58;;;;;;;1.38;1.00;;;;;;;;;;5059534;28;20170;-69
2023/09/22 12:22:24;;;;;;;3.05;1.25;;;;;;;;;;5060040;28;20040;-67
2023/09/22 12:24:50;;;;;;;1.88;1.40;;;;;;;;;;5059761;28;20062;-69
2023/09/22 12:27:16;;;;;;;1.27;0.90;;;20.40;98.70;;;;;;5062103;28;20067;-69
2023/09/22 12:29:43;;;;;;;1.50;1.00;;;;;;;;;;5064950;28;20047;-69
2023/09/22 12:32:10;;;;;;;2.47;1.33;;;21.30;98.60;;;;;;5064027;28;20558;-69
2023/09/22 12:34:36;;;;;;;1.80;0.98;;;21.50;98.60;;;;;;5062567;28;20561;-69
2023/09/22 12:37:02;;;;;;;6.88;1.10;;;21.60;98.60;;;;;;5065227;28;20044;-68
2023/09/22 12:39:28;;;;;;;3.05;1.10;;;21.70;98.60;;;;;;5062607;28;20055;-68
2023/09/22 12:41:53;;;;;;;2.53;1.00;;;21.80;98.50;;;;;;5065356;28;20036;-69
2023/09/22 12:44:20;;;;;;;1.58;0.90;;;21.90;98.50;;;;;;5063965;28;20040;-69
2023/09/22 12:46:47;;;;;;;1.67;1.13;;;21.90;98.40;;;;;;5065071;28;20314;-68
2023/09/22 12:49:12;;;;;;;1.48;1.10;;;22.00;98.60;;;;;;5063679;28;20048;-68
2023/09/22 12:51:39;;;;;;;1.70;1.02;;;22.00;98.30;;;;;;5056586;28;20048;-69
2023/09/22 12:54:06;;;;;;;1.27;1.08;;;22.00;98.30;;;;;;5063564;28;20063;-69
2023/09/22 12:56:32;;;;;;;1.27;1.00;;;22.10;98.20;;;;;;5057637;28;20060;-69
2023/09/22 12:58:58;;;;;;;1.00;0.90;;;22.10;98.20;;;;;;5059994;28;20040;-69
2023/09/22 13:01:24;;;;;;;1.80;1.10;;;22.10;98.10;;;;;;5059500;28;20045;-69
2023/09/22 13:03:51;;;;;;;1.15;0.80;;;22.10;98.10;;;;;;5060729;28;20045;-68
2023/09/22 13:06:17;;;;;;;1.08;0.98;;;22.10;98.00;;;;;;5061716;28;20052;-68
2023/09/22 13:08:43;;;;;;;1.80;1.00;;;22.10;97.90;;;;;;5059471;28;20076;-68
2023/09/22 13:11:14;;;;;;;1.67;0.70;;;22.10;97.90;;;;;;5043262;28;20108;-69
2023/09/22 13:13:40;;;;;;;1.33;0.88;;;22.10;97.90;;;;;;5059604;28;20789;-68
2023/09/22 13:16:09;;;;;;;1.17;0.88;;;22.10;97.80;;;;;;5059856;28;20048;-69
2023/09/22 13:18:34;;;;;;;2.60;0.80;;;22.00;97.80;;;;;;5059545;28;20126;-69
2023/09/22 13:21:01;;;;;;;1.40;0.93;;;22.00;97.70;;;;;;5060644;28;20476;-69
2023/09/22 13:23:27;;;;;;;1.38;0.73;;;22.00;97.70;;;;;;5060737;28;20466;-69
2023/09/22 13:25:54;;;;;;;2.47;0.60;;;22.10;97.70;;;;;;5060456;28;20048;-69
2023/09/22 13:28:20;;;;;;;1.02;0.80;;;22.00;97.60;;;;;;5059620;28;20048;-69
2023/09/22 13:30:53;;;;;;;2.65;0.77;;;22.00;97.60;;;;;;5060286;28;20036;-69
2023/09/22 13:33:22;;;;;;;1.65;0.90;;;22.00;97.60;;;;;;5058734;28;20534;-68
2023/09/22 13:35:49;;;;;;;1.77;0.88;;;22.00;97.60;;;;;;5058262;28;20136;-69
2023/09/22 13:38:15;;;;;;;1.92;0.80;;;21.90;97.60;;;;;;5054578;28;20641;-68
2023/09/22 13:40:44;;;;;;;1.10;0.73;;;21.90;97.50;;;;;;5072264;28;20037;-68
2023/09/22 13:43:12;;;;;;;2.38;0.90;;;21.90;97.40;;;;;;5036334;28;20534;-69
2023/09/22 13:45:39;;;;;;;0.90;0.80;;;21.80;97.40;;;;;;5056653;28;20063;-69
2023/09/22 13:48:09;;;;;;;0.75;0.60;;;21.80;97.30;;;;;;5059247;28;20040;-69
2023/09/22 13:50:38;;;;;;;2.83;0.95;;;21.70;97.20;;;;;;5060261;28;20060;-68
2023/09/22 13:53:06;;;;;;;0.95;0.70;;;21.70;97.30;;;;;;5063005;28;20055;-68
2023/09/22 13:55:34;;;;;;;0.68;0.40;;;21.60;97.10;;;;;;5061509;28;20051;-69